MET'MAP v2.0
soon released !

Expected late october,
this new version will be
more efficient, smarter,
and hosted on a brand new
server x3 powerfull...
...and still free !


Not compatible ?
Try the mobile version !

LOG IN : | Subscribe | Disclaimer | Who is Orbifly ? |
ICAO code :

TAF - DAUB Mohamed Khider - 17 Feb 2020 16:06 UTC - Data Source NOAA   


- Airport Elevation : 289 ft
- IATA code : BSK
- No reported NOTAMs.


DAUB - Mohamed Khider

Latest METAR recorded : 2015/08/11 07:00 DAUB 110700Z 32017KT CAVOK 32/17 Q1012
TAF TAF DAUB
Valid from the 17 at 12:00 until the 18 at 12:00 UTC


171100Z 1712/1812 13008KT CAVOK

Source NOAA


MET'MAP, your aeronautical weather chart ! - Copyright ORBIFLY December 2007

Programming & Development : Alexandra Zaïnal
Co-Developer : Marc-Olivier Méhu
Technical & hardware support : Manuel Goepfert
Concept & Financing : Baudouin d'Aumeries